• Join FlightAware (Why Join?)
  • Login
  • US Flag GB Flag 
11:53 EDT


 

Airport Tracker/Info


-or-


 

Live Flight TrackerFlight Track Log ✈ VNR188 ✈ 08-Jun-2013 ✈ KIAD - KTEB

Flight Track Log - Related Links

Times and Time Zones

All times are in EDT time to prevent confusion due to time zone crossing. See the VNR188 flight status page for this flight to view local times or setup timezone preferences in your user account.

Time Position Orientation Groundspeed Altitude Reporting Facility
EDT Latitude Longitude Course Direction KTS MPH feet Rate Location/Type
18:22 39.2833 -77.1667 63° Northeast 215 247 3,500  Level Potomac TRACON
18:23 39.3167 -77.0833 63° Northeast 246 283 3,500  Level Potomac TRACON
18:24 39.3500 -77.0167 57° Northeast 245 282 3,500  Level Potomac TRACON
18:25 39.3833 -76.9500 57° Northeast 249 287 3,500  Level Potomac TRACON
18:26 39.4333 -76.8667 52° Northeast 257 296 3,500  Level Potomac TRACON
18:27 39.4667 -76.8000 57° Northeast 244 281 3,500  Level Potomac TRACON
18:28 39.5167 -76.7333 46° Northeast 241 277 3,500  Level Potomac TRACON
18:29 39.5500 -76.6500 63° Northeast 239 275 3,500  Level Potomac TRACON
18:30 39.5833 -76.5833 57° Northeast 248 285 3,500  Level Potomac TRACON
18:31 39.6333 -76.5167 46° Northeast 243 280 3,600  Climbing Potomac TRACON
18:32 39.6667 -76.4500 57° Northeast 244 281 3,600  Level Potomac TRACON
18:33 39.7167 -76.3667 52° Northeast 243 280 3,600  Level Potomac TRACON
18:35 39.7667 -76.2500 61° Northeast 248 285 3,600 -60 Level Philadelphia TRACON
18:36 39.8167 -76.1833 46° Northeast 249 287 3,500 -60 Descending Philadelphia TRACON
18:37 39.8500 -76.1000 62° Northeast 247 284 3,500  Level Philadelphia TRACON
18:38 39.9000 -76.0333 46° Northeast 247 284 3,500  Level Philadelphia TRACON
18:39 39.9333 -75.9500 62° Northeast 246 283 3,500  Level Philadelphia TRACON
18:40 39.9833 -75.8500 57° Northeast 246 283 3,600 -240 Climbing Philadelphia TRACON
18:41 40.0167 -75.7833 57° Northeast 229 264 3,100 -360 Descending Philadelphia TRACON
18:42 40.0333 -75.7333 66° East 221 254 3,000  Descending Philadelphia TRACON
18:43 40.0667 -75.6667 57° Northeast 225 259 3,100  Climbing Philadelphia TRACON
18:44 40.1000 -75.5833 62° Northeast 217 250 3,000 -60 Descending Philadelphia TRACON
18:45 40.1167 -75.5167 72° East 216 249 3,000  Level Philadelphia TRACON
18:46 40.1167 -75.4333 90° East 212 244 3,000  Level Philadelphia TRACON
18:47 40.1500 -75.3833 49° Northeast 208 239 3,000  Level Philadelphia TRACON
18:48 40.1833 -75.3167 57° Northeast 218 251 3,000  Level Philadelphia TRACON
18:49 40.2167 -75.2500 57° Northeast 221 254 3,000  Level Philadelphia TRACON
18:50 40.2500 -75.1833 57° Northeast 220 253 3,000  Level Philadelphia TRACON
18:51 40.3000 -75.0833 57° Northeast 221 254 3,100  Climbing New York TRACON
18:52 40.3333 -75.0333 49° Northeast 219 252 3,100  Level New York TRACON
18:53 40.3833 -74.9667 45° Northeast 220 253 3,100  Level New York TRACON
18:54 40.4167 -74.9000 57° Northeast 227 261 3,100  Level New York TRACON
18:55 40.4500 -74.8333 57° Northeast 222 255 3,100  Level New York TRACON
18:56 40.5000 -74.7833 37° Northeast 222 255 3,100  Level New York TRACON
18:57 40.5333 -74.7167 57° Northeast 221 254 3,100  Level New York TRACON
18:58 40.5667 -74.6500 57° Northeast 222 255 3,100  Level New York TRACON
18:59 40.6167 -74.5833 45° Northeast 223 257 3,100  Level New York TRACON
19:00 40.6500 -74.5167 57° Northeast 221 254 3,100  Level New York TRACON
19:01 40.6833 -74.4667 49° Northeast 219 252 3,100  Level New York TRACON
19:02 40.7167 -74.4000 57° Northeast 221 254 3,100  Level New York TRACON
19:03 40.7667 -74.3333 45° Northeast 221 254 3,100 -300 Level New York TRACON
19:04 40.8000 -74.2667 57° Northeast 233 268 2,500 -840 Descending New York TRACON
19:05 40.8333 -74.1833 62° Northeast 227 261 1,600 -720 Descending New York TRACON
19:06 40.8167 -74.1333 114° Southeast 173 199 1,200 -600 Descending New York TRACON
19:07 40.8333 -74.0833 66° East 140 161 400 -840 Descending New York TRACON
19:09 40.8500 -74.0500 57° Northeast  Level FlightAware Approximate
19:16 40.8501 -74.0608 57° Northeast  Level Estimated
19:17 40.8501 -74.0608 57° Northeast  Level Estimated